createdAt,value
2023-03-30T00:02:19.008Z,14.43
2023-03-30T00:05:10.624Z,14.46
2023-03-30T00:08:00.229Z,14.46
2023-03-30T00:10:49.262Z,14.46
2023-03-30T00:13:39.022Z,14.45
2023-03-30T00:16:28.200Z,14.43
2023-03-30T00:19:17.100Z,14.43
2023-03-30T00:22:09.130Z,14.44
2023-03-30T00:24:58.013Z,14.41
2023-03-30T00:27:47.311Z,14.38
2023-03-30T00:30:37.106Z,14.36
2023-03-30T00:33:41.326Z,14.34
2023-03-30T00:36:37.001Z,14.31
2023-03-30T00:39:27.207Z,14.29
2023-03-30T00:42:17.260Z,14.26
2023-03-30T00:45:22.299Z,14.22
2023-03-30T00:48:15.355Z,14.19
2023-03-30T00:51:09.668Z,14.16
2023-03-30T00:54:05.947Z,14.13
2023-03-30T00:56:56.072Z,14.09
2023-03-30T00:59:45.098Z,14.08
2023-03-30T01:02:37.644Z,14.05
2023-03-30T01:05:28.300Z,14.04
2023-03-30T01:08:18.288Z,14.04
2023-03-30T01:11:09.141Z,14.02
2023-03-30T01:14:03.737Z,14.02
2023-03-30T01:17:05.753Z,14.00
2023-03-30T01:20:39.020Z,13.99
2023-03-30T01:24:16.582Z,13.95
2023-03-30T01:27:26.464Z,13.94
2023-03-30T01:30:32.500Z,13.93
2023-03-30T01:34:05.302Z,13.91
2023-03-30T01:37:49.368Z,13.88
2023-03-30T01:40:44.424Z,13.88
2023-03-30T01:43:39.942Z,13.87
2023-03-30T01:46:31.222Z,13.82
2023-03-30T01:49:30.940Z,13.82
2023-03-30T01:52:25.499Z,13.81
2023-03-30T01:55:18.400Z,13.81
2023-03-30T01:58:15.871Z,13.80
2023-03-30T02:01:07.936Z,13.80
2023-03-30T02:03:59.903Z,13.82
2023-03-30T02:06:54.482Z,13.81
2023-03-30T02:09:45.234Z,13.82
2023-03-30T02:12:34.849Z,13.83
2023-03-30T02:15:27.573Z,13.82
2023-03-30T02:18:16.382Z,13.82
2023-03-30T02:21:05.803Z,13.80
2023-03-30T02:23:57.464Z,13.77
2023-03-30T02:26:48.274Z,13.74
2023-03-30T02:29:41.998Z,13.74
2023-03-30T02:32:40.867Z,13.73
2023-03-30T02:35:51.924Z,13.73
2023-03-30T02:42:24.426Z,13.74
2023-03-30T02:45:26.641Z,13.75
2023-03-30T02:48:34.554Z,13.76
2023-03-30T02:51:40.137Z,13.77
2023-03-30T02:55:01.558Z,13.78
2023-03-30T02:58:07.409Z,13.78
2023-03-30T03:01:02.360Z,13.79
2023-03-30T03:04:07.982Z,13.81
2023-03-30T03:07:05.572Z,13.82
2023-03-30T03:09:54.331Z,13.84
2023-03-30T03:12:46.149Z,13.84
2023-03-30T03:15:37.887Z,13.72
2023-03-30T03:18:34.963Z,13.59
2023-03-30T03:21:25.334Z,13.52
2023-03-30T03:24:17.275Z,13.46
2023-03-30T03:27:44.409Z,13.43
2023-03-30T03:30:39.162Z,13.43
2023-03-30T03:33:33.614Z,13.43
2023-03-30T03:36:53.339Z,13.41
2023-03-30T03:39:42.841Z,13.40
2023-03-30T03:42:33.908Z,13.38
2023-03-30T03:45:33.800Z,13.36
2023-03-30T03:48:25.532Z,13.33
2023-03-30T03:51:14.475Z,13.30
2023-03-30T03:54:04.778Z,13.26
2023-03-30T03:56:53.843Z,13.23
2023-03-30T03:59:43.902Z,13.20
2023-03-30T04:02:35.287Z,13.16
2023-03-30T04:05:24.619Z,13.15
2023-03-30T04:08:13.313Z,13.12
2023-03-30T04:10:43.542Z,13.11
2023-03-30T04:13:38.654Z,13.10
2023-03-30T04:16:31.625Z,13.09
2023-03-30T04:19:12.660Z,13.11
2023-03-30T04:21:55.517Z,13.13
2023-03-30T04:24:39.866Z,13.16
2023-03-30T04:27:28.765Z,13.20
2023-03-30T04:29:58.036Z,13.23
2023-03-30T04:32:39.393Z,13.30
2023-03-30T04:35:33.259Z,13.35
2023-03-30T04:38:12.256Z,13.36
2023-03-30T04:40:40.794Z,13.14
2023-03-30T04:43:42.775Z,12.90
2023-03-30T04:46:34.555Z,12.74
2023-03-30T04:49:13.430Z,12.63
2023-03-30T04:52:00.637Z,12.55
2023-03-30T04:54:52.178Z,12.47
2023-03-30T04:57:39.436Z,12.40
2023-03-30T05:00:28.161Z,12.36
2023-03-30T05:03:22.977Z,12.32
2023-03-30T05:06:09.558Z,12.30
2023-03-30T05:08:57.435Z,12.28
2023-03-30T05:11:40.673Z,12.29
2023-03-30T05:14:35.443Z,12.29
2023-03-30T05:17:23.880Z,12.30
2023-03-30T05:20:08.257Z,12.33
2023-03-30T05:23:05.762Z,12.34
2023-03-30T05:26:10.596Z,12.35
2023-03-30T05:28:39.206Z,12.28
2023-03-30T05:31:24.031Z,12.15
2023-03-30T05:34:08.940Z,12.07
2023-03-30T05:36:48.605Z,12.00
2023-03-30T05:39:40.408Z,11.93
2023-03-30T05:42:22.138Z,11.92
2023-03-30T05:45:08.023Z,11.90
2023-03-30T05:47:58.592Z,11.88
2023-03-30T05:50:42.805Z,11.84
2023-03-30T05:53:20.070Z,11.83
2023-03-30T05:56:08.292Z,11.82
2023-03-30T05:58:59.166Z,11.81
2023-03-30T06:01:47.494Z,11.81
2023-03-30T06:04:17.439Z,11.85
2023-03-30T06:06:47.086Z,11.92
2023-03-30T06:09:15.848Z,11.98
2023-03-30T06:11:44.478Z,12.02
2023-03-30T06:14:25.591Z,12.01
2023-03-30T06:17:15.931Z,11.99
2023-03-30T06:19:45.496Z,11.98
2023-03-30T06:22:15.426Z,11.98
2023-03-30T06:25:10.903Z,11.97
2023-03-30T06:27:39.546Z,11.99
2023-03-30T06:30:10.603Z,11.99
2023-03-30T06:32:40.987Z,12.00
2023-03-30T06:35:22.923Z,12.01
2023-03-30T06:37:54.074Z,12.02
2023-03-30T06:40:23.154Z,12.03
2023-03-30T06:42:53.600Z,12.03
2023-03-30T06:45:31.030Z,12.02
2023-03-30T06:48:00.104Z,12.02
2023-03-30T06:50:28.708Z,12.01
2023-03-30T06:53:15.488Z,11.99
2023-03-30T06:55:45.952Z,11.98
2023-03-30T06:58:19.927Z,11.95
2023-03-30T07:00:49.051Z,11.95
2023-03-30T07:03:41.249Z,11.92
2023-03-30T07:06:28.051Z,11.91
2023-03-30T07:08:58.028Z,11.91
2023-03-30T07:11:27.683Z,11.88
2023-03-30T07:13:58.251Z,11.88
2023-03-30T07:16:27.026Z,11.88
2023-03-30T07:18:55.744Z,11.90
2023-03-30T07:21:24.636Z,11.93
2023-03-30T07:23:53.186Z,11.96
2023-03-30T07:26:32.578Z,12.00
2023-03-30T07:29:07.357Z,12.03
2023-03-30T07:31:37.088Z,12.04
2023-03-30T07:34:07.742Z,12.04
2023-03-30T07:36:40.972Z,12.05
2023-03-30T07:39:09.702Z,12.06
2023-03-30T07:41:42.100Z,12.08
2023-03-30T07:44:10.805Z,12.12
2023-03-30T07:46:39.419Z,12.14
2023-03-30T07:49:09.834Z,12.16
2023-03-30T07:51:38.432Z,12.19
2023-03-30T07:54:16.445Z,12.23
2023-03-30T07:56:57.616Z,12.25
2023-03-30T07:59:26.987Z,12.29
2023-03-30T08:02:00.507Z,12.33
2023-03-30T08:04:47.682Z,12.39
2023-03-30T08:07:21.547Z,12.43
2023-03-30T08:09:54.980Z,12.44
2023-03-30T08:12:24.678Z,12.48
2023-03-30T08:14:55.601Z,12.51
2023-03-30T08:17:24.361Z,12.57
2023-03-30T08:19:52.823Z,12.65
2023-03-30T08:22:21.462Z,12.74
2023-03-30T08:24:50.050Z,12.85
2023-03-30T08:27:18.357Z,12.96
2023-03-30T08:29:48.827Z,13.02
2023-03-30T08:32:17.515Z,13.03
2023-03-30T08:34:45.895Z,13.06
2023-03-30T08:37:14.470Z,13.06
2023-03-30T08:39:42.719Z,13.06
2023-03-30T08:42:28.329Z,13.06
2023-03-30T08:45:03.287Z,13.09
2023-03-30T08:47:35.636Z,13.13
2023-03-30T08:50:09.557Z,13.19
2023-03-30T08:52:38.877Z,13.23
2023-03-30T08:55:18.885Z,13.28
2023-03-30T08:57:57.471Z,13.30
2023-03-30T09:00:39.582Z,13.34
2023-03-30T09:03:19.161Z,13.40
2023-03-30T09:05:53.931Z,13.44
2023-03-30T09:08:23.830Z,13.41
2023-03-30T09:10:58.730Z,13.50
2023-03-30T09:13:31.122Z,13.57
2023-03-30T09:16:11.185Z,13.62
2023-03-30T09:18:42.441Z,13.67
2023-03-30T09:21:14.056Z,13.74
2023-03-30T09:23:42.601Z,13.85
2023-03-30T09:26:21.980Z,13.96
2023-03-30T09:29:00.896Z,14.05
2023-03-30T09:31:39.877Z,14.19
2023-03-30T09:34:20.310Z,14.30
2023-03-30T09:36:56.525Z,14.38
2023-03-30T09:39:29.235Z,14.42
2023-03-30T09:42:17.690Z,14.47
2023-03-30T09:44:49.361Z,14.57
2023-03-30T09:47:26.268Z,14.64
2023-03-30T09:50:00.890Z,14.71
2023-03-30T09:52:31.986Z,14.75
2023-03-30T09:55:26.219Z,14.77
2023-03-30T09:57:55.824Z,14.76
2023-03-30T10:00:31.299Z,14.77
2023-03-30T10:03:03.574Z,14.76
2023-03-30T10:05:34.893Z,14.77
2023-03-30T10:08:07.173Z,14.82
2023-03-30T10:10:37.730Z,14.89
2023-03-30T10:13:12.494Z,14.96
2023-03-30T10:15:43.669Z,15.01
2023-03-30T10:18:25.357Z,15.16
2023-03-30T10:21:05.416Z,15.44
2023-03-30T10:23:40.031Z,15.59
2023-03-30T10:26:15.558Z,15.67
2023-03-30T10:28:53.873Z,15.72
2023-03-30T10:31:25.584Z,15.73
2023-03-30T10:34:00.789Z,15.72
2023-03-30T10:36:33.644Z,15.74
2023-03-30T10:39:13.117Z,15.77
2023-03-30T10:41:43.699Z,15.83
2023-03-30T10:44:25.007Z,15.87
2023-03-30T10:47:05.127Z,15.93
2023-03-30T10:49:49.136Z,15.98
2023-03-30T10:52:28.242Z,16.07
2023-03-30T10:55:03.747Z,16.11
2023-03-30T10:57:42.836Z,16.15
2023-03-30T11:00:29.705Z,16.32
2023-03-30T11:03:08.144Z,16.51
2023-03-30T11:05:42.158Z,16.63
2023-03-30T11:08:16.486Z,16.76
2023-03-30T11:10:48.671Z,16.89
2023-03-30T11:13:22.619Z,16.96
2023-03-30T11:15:54.669Z,16.97
2023-03-30T11:18:28.521Z,17.07
2023-03-30T11:21:02.782Z,17.09
2023-03-30T11:23:43.473Z,17.01
2023-03-30T11:26:16.923Z,16.96
2023-03-30T11:28:59.706Z,16.94
2023-03-30T11:31:46.541Z,16.91
2023-03-30T11:34:26.370Z,16.86
2023-03-30T11:37:07.179Z,16.80
2023-03-30T11:39:38.761Z,16.73
2023-03-30T11:42:17.933Z,16.72
2023-03-30T11:44:46.525Z,16.71
2023-03-30T11:47:48.820Z,16.62
2023-03-30T11:50:33.302Z,16.65
2023-03-30T11:53:17.243Z,17.22
2023-03-30T11:56:07.891Z,17.54
2023-03-30T11:58:38.415Z,17.85
2023-03-30T12:01:58.591Z,18.38
2023-03-30T12:04:32.762Z,18.61
2023-03-30T12:07:04.005Z,18.64
2023-03-30T12:09:37.276Z,18.52
2023-03-30T12:12:15.665Z,18.35
2023-03-30T12:15:01.893Z,18.14
2023-03-30T12:17:42.466Z,18.21
2023-03-30T12:20:26.697Z,18.68
2023-03-30T12:23:02.356Z,19.19
2023-03-30T12:25:41.935Z,19.64
2023-03-30T12:28:16.115Z,19.99
2023-03-30T12:30:54.909Z,19.84
2023-03-30T12:33:29.220Z,19.60
2023-03-30T12:36:02.242Z,19.73
2023-03-30T12:38:39.209Z,19.69
2023-03-30T12:41:18.592Z,19.73
2023-03-30T12:44:36.692Z,20.11
2023-03-30T12:47:34.340Z,20.37
2023-03-30T12:50:29.213Z,20.60
2023-03-30T12:53:19.846Z,20.88
2023-03-30T12:55:57.556Z,21.04
2023-03-30T12:58:57.448Z,21.26
2023-03-30T13:01:49.748Z,21.52
2023-03-30T13:04:23.883Z,21.66
2023-03-30T13:06:57.210Z,21.63
2023-03-30T13:09:37.030Z,21.39
2023-03-30T13:12:42.950Z,21.14
2023-03-30T13:15:35.798Z,21.11
2023-03-30T13:18:24.469Z,21.07
2023-03-30T13:21:17.087Z,21.15
2023-03-30T13:23:59.510Z,21.37
2023-03-30T13:26:40.005Z,21.42
2023-03-30T13:29:11.461Z,21.31
2023-03-30T13:32:07.002Z,21.10
2023-03-30T13:35:07.500Z,20.87
2023-03-30T13:38:13.046Z,20.79
2023-03-30T13:41:03.929Z,20.73
2023-03-30T13:43:57.781Z,20.86
2023-03-30T13:46:36.594Z,21.14
2023-03-30T13:49:23.135Z,21.04
2023-03-30T13:51:52.926Z,21.23
2023-03-30T13:54:26.797Z,21.64
2023-03-30T13:57:02.898Z,22.05
2023-03-30T13:59:34.793Z,22.27
2023-03-30T14:02:04.170Z,22.20
2023-03-30T14:04:37.089Z,22.03
2023-03-30T14:07:17.641Z,22.06
2023-03-30T14:10:03.042Z,21.67
2023-03-30T14:12:33.408Z,21.19
2023-03-30T14:15:03.024Z,20.70
2023-03-30T14:17:31.726Z,20.20
2023-03-30T14:20:17.663Z,19.77
2023-03-30T14:22:48.199Z,19.46
2023-03-30T14:25:28.279Z,19.20
2023-03-30T14:27:58.696Z,18.86
2023-03-30T14:30:30.124Z,18.31
2023-03-30T14:33:10.659Z,17.61
2023-03-30T14:35:44.480Z,17.22
2023-03-30T14:38:21.099Z,17.36
2023-03-30T14:40:50.282Z,17.81
2023-03-30T14:43:24.446Z,18.29
2023-03-30T14:45:54.383Z,18.75
2023-03-30T14:48:29.648Z,19.19
2023-03-30T14:50:59.823Z,19.67
2023-03-30T14:53:30.036Z,20.06
2023-03-30T14:56:02.475Z,20.46
2023-03-30T14:58:33.465Z,20.84
2023-03-30T15:01:09.621Z,21.20
2023-03-30T15:03:39.612Z,21.30
2023-03-30T15:06:10.296Z,21.23
2023-03-30T15:08:40.561Z,20.78
2023-03-30T15:11:13.341Z,20.23
2023-03-30T15:13:45.273Z,19.68
2023-03-30T15:16:19.252Z,19.24
2023-03-30T15:18:47.999Z,18.98
2023-03-30T15:21:18.730Z,18.79
2023-03-30T15:23:49.565Z,18.95
2023-03-30T15:26:20.183Z,19.26
2023-03-30T15:28:52.163Z,19.49
2023-03-30T15:31:21.315Z,19.53
2023-03-30T15:33:53.898Z,19.25
2023-03-30T15:36:26.607Z,19.00
2023-03-30T15:38:58.604Z,18.99
2023-03-30T15:41:46.382Z,18.91
2023-03-30T15:44:19.162Z,18.82
2023-03-30T15:46:49.421Z,18.62
2023-03-30T15:49:22.426Z,18.43
2023-03-30T15:51:54.459Z,18.37
2023-03-30T15:54:28.039Z,18.46
2023-03-30T15:57:04.630Z,18.43
2023-03-30T15:59:39.247Z,18.39
2023-03-30T16:02:17.530Z,18.29
2023-03-30T16:04:46.223Z,18.18
2023-03-30T16:07:20.136Z,18.19
2023-03-30T16:09:49.546Z,18.11
2023-03-30T16:12:21.384Z,17.99
2023-03-30T16:14:50.939Z,17.86
2023-03-30T16:17:19.950Z,17.78
2023-03-30T16:19:48.921Z,17.72
2023-03-30T16:22:18.540Z,17.65
2023-03-30T16:24:48.228Z,17.60
2023-03-30T16:27:16.937Z,17.55
2023-03-30T16:29:45.656Z,17.49
2023-03-30T16:32:14.169Z,17.41
2023-03-30T16:34:43.160Z,17.31
2023-03-30T16:37:12.473Z,17.21
2023-03-30T16:39:42.614Z,17.01
2023-03-30T16:42:11.109Z,16.70
2023-03-30T16:44:39.640Z,16.18
2023-03-30T16:47:08.239Z,15.55
2023-03-30T16:49:36.769Z,15.14
2023-03-30T16:52:06.145Z,14.94
2023-03-30T16:54:35.039Z,14.95
2023-03-30T16:57:06.189Z,15.14
2023-03-30T16:59:36.163Z,15.35
2023-03-30T17:02:04.352Z,15.53
2023-03-30T17:04:32.856Z,15.66
2023-03-30T17:07:01.904Z,15.80
2023-03-30T17:09:30.448Z,15.91
2023-03-30T17:11:58.624Z,15.95
2023-03-30T17:14:30.120Z,15.95
2023-03-30T17:16:58.823Z,15.88
2023-03-30T17:19:27.867Z,15.76
2023-03-30T17:21:56.634Z,15.63
2023-03-30T17:24:25.238Z,15.51
2023-03-30T17:26:53.906Z,15.37
2023-03-30T17:29:22.557Z,15.18
2023-03-30T17:31:52.212Z,15.00
2023-03-30T17:34:20.894Z,14.82
2023-03-30T17:36:49.619Z,14.67
2023-03-30T17:39:18.118Z,14.53
2023-03-30T17:41:46.603Z,14.42
2023-03-30T17:44:15.367Z,14.29
2023-03-30T17:46:43.966Z,14.18
2023-03-30T17:49:18.086Z,14.06
2023-03-30T17:51:47.105Z,13.97
2023-03-30T17:54:15.638Z,13.88
2023-03-30T17:56:44.332Z,13.81
2023-03-30T17:59:13.096Z,13.70
2023-03-30T18:01:41.809Z,13.65
2023-03-30T18:04:10.549Z,13.60
2023-03-30T18:06:41.140Z,13.55
2023-03-30T18:09:16.912Z,13.51
2023-03-30T18:11:45.487Z,13.50
2023-03-30T18:14:13.976Z,13.50
2023-03-30T18:16:44.037Z,13.48
2023-03-30T18:19:12.821Z,13.48
2023-03-30T18:21:42.501Z,13.53
2023-03-30T18:24:11.092Z,13.56
2023-03-30T18:26:42.860Z,13.58
2023-03-30T18:29:20.269Z,13.58
2023-03-30T18:31:49.735Z,13.57
2023-03-30T18:34:19.493Z,13.57
2023-03-30T18:36:49.135Z,13.52
2023-03-30T18:39:19.861Z,13.46
2023-03-30T18:41:48.544Z,13.39
2023-03-30T18:44:16.950Z,13.36
2023-03-30T18:46:48.241Z,13.32
2023-03-30T18:49:20.690Z,13.28
2023-03-30T18:51:50.582Z,13.26
2023-03-30T18:54:18.893Z,13.26
2023-03-30T18:56:47.814Z,13.28
2023-03-30T18:59:18.974Z,13.31
2023-03-30T19:01:47.651Z,13.33
2023-03-30T19:04:16.157Z,13.34
2023-03-30T19:06:46.212Z,13.32
2023-03-30T19:09:15.850Z,13.25
2023-03-30T19:11:44.351Z,13.17
2023-03-30T19:14:13.071Z,13.05
2023-03-30T19:16:41.967Z,12.95
2023-03-30T19:19:14.911Z,12.86
2023-03-30T19:21:46.105Z,12.77
2023-03-30T19:24:15.730Z,12.70
2023-03-30T19:26:43.923Z,12.63
2023-03-30T19:29:12.883Z,12.57
2023-03-30T19:31:41.479Z,12.48
2023-03-30T19:34:10.210Z,12.41
2023-03-30T19:36:38.720Z,12.32
2023-03-30T19:39:07.376Z,12.25
2023-03-30T19:41:37.018Z,12.19
2023-03-30T19:44:05.733Z,12.11
2023-03-30T19:46:34.413Z,12.07
2023-03-30T19:49:03.166Z,12.05
2023-03-30T19:51:31.456Z,12.00
2023-03-30T19:54:00.000Z,11.99
2023-03-30T19:56:28.606Z,11.96
2023-03-30T19:58:58.780Z,11.94
2023-03-30T20:01:38.424Z,11.95
2023-03-30T20:04:07.666Z,11.96
2023-03-30T20:06:36.332Z,11.98
2023-03-30T20:09:05.360Z,11.98
2023-03-30T20:11:33.866Z,11.98
2023-03-30T20:14:04.013Z,11.98
2023-03-30T20:16:35.097Z,11.97
2023-03-30T20:19:15.844Z,11.98
2023-03-30T20:21:47.727Z,11.99
2023-03-30T20:24:16.100Z,12.01
2023-03-30T20:26:44.773Z,12.01
2023-03-30T20:29:14.455Z,12.04
2023-03-30T20:31:42.983Z,12.07
2023-03-30T20:34:12.856Z,12.09
2023-03-30T20:36:41.463Z,12.13
2023-03-30T20:39:10.034Z,12.17
2023-03-30T20:41:39.027Z,12.20
2023-03-30T20:44:11.517Z,12.20
2023-03-30T20:46:43.388Z,12.21
2023-03-30T20:49:13.951Z,12.22
2023-03-30T20:51:44.983Z,12.23
2023-03-30T20:54:13.510Z,12.24
2023-03-30T20:56:42.178Z,12.25
2023-03-30T20:59:10.788Z,12.25
2023-03-30T21:01:41.012Z,12.20
2023-03-30T21:04:09.997Z,12.16
2023-03-30T21:06:38.578Z,12.12
2023-03-30T21:09:08.992Z,12.08
2023-03-30T21:11:39.759Z,12.06
2023-03-30T21:14:09.464Z,12.05
2023-03-30T21:16:38.352Z,12.03
2023-03-30T21:19:07.948Z,12.02
2023-03-30T21:21:37.591Z,12.02
2023-03-30T21:24:07.432Z,12.01
2023-03-30T21:26:35.932Z,11.99
2023-03-30T21:29:04.730Z,11.99
2023-03-30T21:31:33.596Z,11.96
2023-03-30T21:34:02.354Z,11.95
2023-03-30T21:36:32.023Z,11.93
2023-03-30T21:39:00.793Z,11.91
2023-03-30T21:41:30.209Z,11.91
2023-03-30T21:43:58.397Z,11.90
2023-03-30T21:46:28.793Z,11.92
2023-03-30T21:48:57.523Z,11.91
2023-03-30T21:51:28.019Z,11.91
2023-03-30T21:53:58.704Z,11.92
2023-03-30T21:56:30.373Z,11.91
2023-03-30T21:58:59.069Z,11.90
2023-03-30T22:01:27.962Z,11.89
2023-03-30T22:03:57.396Z,11.88
2023-03-30T22:06:26.131Z,11.86
2023-03-30T22:08:54.726Z,11.86
2023-03-30T22:11:26.708Z,11.83
2023-03-30T22:13:55.684Z,11.82
2023-03-30T22:16:28.080Z,11.81
2023-03-30T22:18:56.853Z,11.80
2023-03-30T22:21:29.142Z,11.78
2023-03-30T22:23:57.778Z,11.76
2023-03-30T22:26:28.100Z,11.73
2023-03-30T22:28:56.920Z,11.71
2023-03-30T22:31:26.454Z,11.69
2023-03-30T22:33:55.642Z,11.69
2023-03-30T22:36:26.254Z,11.70
2023-03-30T22:38:56.643Z,11.71
2023-03-30T22:41:26.949Z,11.70
2023-03-30T22:43:57.607Z,11.71
2023-03-30T22:46:27.985Z,11.73
2023-03-30T22:48:56.672Z,11.74
2023-03-30T22:51:27.112Z,11.73
2023-03-30T22:53:57.714Z,11.74
2023-03-30T22:56:28.096Z,11.73
2023-03-30T22:58:56.956Z,11.74
2023-03-30T23:01:25.775Z,11.75
2023-03-30T23:03:54.591Z,11.77
2023-03-30T23:06:23.383Z,11.79
2023-03-30T23:08:52.736Z,11.80
2023-03-30T23:11:21.818Z,11.82
2023-03-30T23:13:52.344Z,11.85
2023-03-30T23:16:20.928Z,11.86
2023-03-30T23:18:50.235Z,11.87
2023-03-30T23:21:22.228Z,11.87
2023-03-30T23:23:50.998Z,11.86
2023-03-30T23:26:19.593Z,11.85
2023-03-30T23:28:48.197Z,11.84
2023-03-30T23:31:18.907Z,11.82
2023-03-30T23:33:47.644Z,11.82
2023-03-30T23:36:17.630Z,11.80
2023-03-30T23:38:46.960Z,11.80
2023-03-30T23:41:18.281Z,11.79
2023-03-30T23:43:47.511Z,11.81
2023-03-30T23:46:17.680Z,11.79
2023-03-30T23:48:46.526Z,11.79
2023-03-30T23:51:15.058Z,11.78
2023-03-30T23:53:43.562Z,11.79
2023-03-30T23:56:13.841Z,11.80
2023-03-30T23:58:42.679Z,11.81
